メインページ
METAR-TAF:

METAR-TAF

空港 :

ベレン, パラー州, ブラジル

緯度: 01-23S, 経度: 048-29W, 海抜: 16m

現時点の気象観測

当レポートは26分前の06:00(UTC)に作成
東/南東の風 3kt
気温 25°C
湿度 89%
気圧 1010 hPa
視程10km以上
1,500メートル以下は雲なし、積乱雲なし

METAR: SBBE 140600Z 11003KT CAVOK 25/23 Q1010

時間: 03:26 (06:26 UTC)

予報

当レポートは2時間26分前の04:00(UTC)に作成
予報は14日の 06時(UTC)から 15日の 06時(UTC)まで有効
東/北東の風 5kt
視程10km以上
高度4000ftの雲は散在している
14日の 11時(UTC)から 14日の 13時(UTC)まで徐々に
の風 8kt
高度2500ftの雲は散在している
14日の 15時(UTC)から 14日の 17時(UTC)まで徐々に
の風 10kt
高度3500ftの雲は散在している
高度4000ftの雲はほとんどない, 塔状積雲.
14日の 17時(UTC)から 14日の 21時(UTC)まで一時的に
視程: 4000m
にわか雨
14日の 22時(UTC)から 14日の 24時(UTC)まで徐々に
東/北東の風 8kt
視程10km以上
1,500メートル以下は雲なし、積乱雲なし

TAF: SBBE 140400Z 1406/1506 07005KT 9999 SCT040 TN24/1407Z TX31/1416Z BECMG 1411/1413 10008KT SCT025 BECMG 1415/1417 36010KT SCT035 FEW040TCU PR OB30 TEMPO 1417/1421 4000 SHRA BECMG 1422/1424 06008KT CAVOK RMK PCW

4,000以上の空港の気象観測と天気予報(METAR報とTAF報)

利用可能な観測所は地図上に黄色い丸と赤い丸で示す。

丸の上にカーソルを重ねると観測所名を参照できる。

次にクリックすると気象観測と天気予報を参照できる。

マップの切り替え:黒色「×」印の緑ボタンをクリックして拡大、「-」印の緑ボタンをクリックして縮小、緑色の三角印をクリックして隣りの地図に切り替え


METAR-TAF: